createdAt,value
2018-12-18T00:01:55.565Z,16.90
2018-12-18T00:04:24.007Z,15.70
2018-12-18T00:06:52.418Z,17.07
2018-12-18T00:09:20.880Z,17.80
2018-12-18T00:11:49.277Z,16.80
2018-12-18T00:14:21.567Z,17.50
2018-12-18T00:16:50.032Z,18.00
2018-12-18T00:19:18.403Z,17.98
2018-12-18T00:21:46.928Z,18.00
2018-12-18T00:24:17.499Z,16.77
2018-12-18T00:26:46.000Z,20.48
2018-12-18T00:29:14.388Z,18.52
2018-12-18T00:31:42.780Z,19.17
2018-12-18T00:34:11.267Z,18.27
2018-12-18T00:36:39.678Z,16.83
2018-12-18T00:39:12.344Z,16.73
2018-12-18T00:41:40.980Z,17.10
2018-12-18T00:44:09.487Z,17.43
2018-12-18T00:46:37.954Z,18.23
2018-12-18T00:49:06.554Z,18.90
2018-12-18T00:51:34.926Z,17.37
2018-12-18T00:54:03.309Z,18.40
2018-12-18T00:56:31.706Z,17.60
2018-12-18T00:59:00.106Z,17.87
2018-12-18T01:01:28.523Z,17.57
2018-12-18T01:03:56.896Z,18.17
2018-12-18T01:06:25.382Z,17.80
2018-12-18T01:08:53.742Z,16.77
2018-12-18T01:11:22.137Z,17.30
2018-12-18T01:13:50.597Z,17.70
2018-12-18T01:16:21.868Z,19.50
2018-12-18T01:18:51.947Z,17.90
2018-12-18T01:21:21.282Z,17.53
2018-12-18T01:23:51.993Z,16.55
2018-12-18T01:26:20.436Z,16.47
2018-12-18T01:28:48.829Z,18.07
2018-12-18T01:31:17.215Z,17.80
2018-12-18T01:33:45.699Z,18.15
2018-12-18T01:36:14.228Z,18.07
2018-12-18T01:38:42.694Z,16.53
2018-12-18T01:41:11.059Z,16.70
2018-12-18T01:43:39.482Z,17.10
2018-12-18T01:46:07.885Z,17.40
2018-12-18T01:48:36.384Z,18.80
2018-12-18T01:51:04.746Z,17.00
2018-12-18T01:53:33.333Z,18.30
2018-12-18T01:56:01.840Z,17.33
2018-12-18T01:58:30.243Z,20.80
2018-12-18T02:00:58.627Z,19.73
2018-12-18T02:03:27.150Z,18.90
2018-12-18T02:05:56.177Z,18.62
2018-12-18T02:08:24.569Z,17.80
2018-12-18T02:10:53.118Z,18.57
2018-12-18T02:13:21.532Z,18.95
2018-12-18T02:15:51.405Z,18.97
2018-12-18T02:18:19.914Z,19.55
2018-12-18T02:20:48.565Z,19.95
2018-12-18T02:23:17.044Z,20.77
2018-12-18T02:25:46.200Z,18.82
2018-12-18T02:28:14.677Z,21.15
2018-12-18T02:30:43.048Z,19.37
2018-12-18T02:33:11.453Z,20.30
2018-12-18T02:35:39.895Z,19.90
2018-12-18T02:38:08.285Z,20.57
2018-12-18T02:45:27.207Z,19.17
2018-12-18T02:47:55.738Z,19.20
2018-12-18T02:50:24.111Z,19.37
2018-12-18T02:52:53.191Z,19.90
2018-12-18T02:55:21.833Z,22.47
2018-12-18T02:57:50.252Z,21.83
2018-12-18T03:00:18.712Z,22.50
2018-12-18T03:02:47.141Z,23.80
2018-12-18T03:05:15.570Z,23.70
2018-12-18T03:07:44.004Z,22.57
2018-12-18T03:10:12.370Z,24.07
2018-12-18T03:12:40.772Z,25.07
2018-12-18T03:15:09.235Z,25.57
2018-12-18T03:17:37.665Z,26.40
2018-12-18T03:20:06.895Z,25.50
2018-12-18T03:22:35.253Z,25.07
2018-12-18T03:25:04.084Z,27.93
2018-12-18T03:27:32.443Z,29.07
2018-12-18T03:30:00.877Z,27.00
2018-12-18T03:32:37.142Z,28.70
2018-12-18T03:35:05.739Z,26.77
2018-12-18T03:37:34.101Z,27.50
2018-12-18T03:40:02.537Z,29.17
2018-12-18T03:42:30.905Z,28.87
2018-12-18T03:44:59.334Z,28.50
2018-12-18T03:47:27.689Z,31.07
2018-12-18T03:49:56.119Z,29.67
2018-12-18T03:52:24.514Z,30.20
2018-12-18T03:54:53.007Z,29.67
2018-12-18T03:57:22.367Z,29.00
2018-12-18T03:59:50.779Z,29.20
2018-12-18T04:02:19.300Z,28.12
2018-12-18T04:04:47.705Z,31.50
2018-12-18T04:07:16.200Z,27.80
2018-12-18T04:09:44.594Z,29.07
2018-12-18T04:12:18.297Z,29.10
2018-12-18T04:14:46.646Z,30.77
2018-12-18T04:17:15.080Z,29.70
2018-12-18T04:19:43.555Z,27.73
2018-12-18T04:22:11.983Z,30.30
2018-12-18T04:24:40.357Z,29.80
2018-12-18T04:27:08.770Z,30.72
2018-12-18T04:29:37.132Z,27.60
2018-12-18T04:32:05.535Z,31.25
2018-12-18T04:34:34.027Z,32.90
2018-12-18T04:37:03.373Z,33.83
2018-12-18T04:39:32.484Z,28.83
2018-12-18T04:42:01.322Z,31.62
2018-12-18T04:44:29.646Z,32.50
2018-12-18T04:46:58.025Z,29.85
2018-12-18T04:49:26.446Z,26.27
2018-12-18T04:51:54.848Z,29.33
2018-12-18T04:54:23.515Z,31.83
2018-12-18T04:56:51.938Z,30.40
2018-12-18T04:59:20.291Z,34.03
2018-12-18T05:01:48.718Z,27.77
2018-12-18T05:04:17.146Z,28.40
2018-12-18T05:06:45.510Z,31.35
2018-12-18T05:09:14.703Z,29.10
2018-12-18T05:11:43.512Z,29.32
2018-12-18T05:14:12.076Z,31.00
2018-12-18T05:16:40.450Z,29.67
2018-12-18T05:19:08.822Z,26.68
2018-12-18T05:21:37.680Z,27.90
2018-12-18T05:24:06.067Z,25.15
2018-12-18T05:26:34.455Z,28.02
2018-12-18T05:29:02.868Z,24.80
2018-12-18T05:31:33.078Z,26.75
2018-12-18T05:34:01.466Z,29.05
2018-12-18T05:36:29.830Z,27.90
2018-12-18T05:38:58.202Z,28.25
2018-12-18T05:41:26.589Z,28.15
2018-12-18T05:43:57.662Z,27.87
2018-12-18T05:46:26.048Z,29.75
2018-12-18T05:48:54.421Z,33.70
2018-12-18T05:51:22.778Z,32.70
2018-12-18T05:53:51.122Z,38.23
2018-12-18T05:56:19.562Z,47.60
2018-12-18T05:58:47.990Z,53.45
2018-12-18T06:01:16.763Z,39.13
2018-12-18T06:03:45.178Z,41.63
2018-12-18T06:06:13.617Z,32.63
2018-12-18T06:08:42.046Z,30.97
2018-12-18T06:11:10.402Z,30.32
2018-12-18T06:13:38.792Z,30.20
2018-12-18T06:16:07.341Z,32.45
2018-12-18T06:18:35.783Z,31.33
2018-12-18T06:21:04.179Z,33.73
2018-12-18T06:23:32.701Z,30.17
2018-12-18T06:26:01.110Z,28.60
2018-12-18T06:28:29.519Z,27.55
2018-12-18T06:30:58.047Z,30.10
2018-12-18T06:33:26.498Z,28.55
2018-12-18T06:35:54.915Z,26.50
2018-12-18T06:38:25.099Z,26.13
2018-12-18T06:40:54.924Z,25.17
2018-12-18T06:43:29.050Z,25.73
2018-12-18T06:45:57.714Z,26.62
2018-12-18T06:48:26.187Z,24.10
2018-12-18T06:50:54.590Z,24.92
2018-12-18T06:53:24.410Z,26.48
2018-12-18T06:55:54.196Z,27.37
2018-12-18T06:58:22.554Z,28.70
2018-12-18T07:00:52.373Z,26.03
2018-12-18T07:03:20.796Z,22.50
2018-12-18T07:05:49.275Z,22.03
2018-12-18T07:08:17.740Z,22.70
2018-12-18T07:10:46.275Z,24.10
2018-12-18T07:13:14.752Z,21.40
2018-12-18T07:15:43.177Z,22.87
2018-12-18T07:18:11.620Z,25.23
2018-12-18T07:20:40.454Z,22.90
2018-12-18T07:23:09.461Z,22.52
2018-12-18T07:25:41.210Z,22.97
2018-12-18T07:28:09.997Z,23.20
2018-12-18T07:30:38.541Z,27.20
2018-12-18T07:33:06.996Z,21.45
2018-12-18T07:35:35.454Z,21.42
2018-12-18T07:38:04.000Z,20.80
2018-12-18T07:40:32.409Z,19.82
2018-12-18T07:43:00.853Z,21.07
2018-12-18T07:45:29.351Z,19.53
2018-12-18T07:47:57.791Z,18.30
2018-12-18T07:50:26.250Z,19.50
2018-12-18T07:52:54.698Z,20.03
2018-12-18T07:55:23.091Z,20.57
2018-12-18T07:57:51.504Z,19.17
2018-12-18T08:00:20.010Z,19.47
2018-12-18T08:02:48.415Z,20.60
2018-12-18T08:05:16.856Z,19.40
2018-12-18T08:07:45.226Z,19.40
2018-12-18T08:10:13.651Z,19.90
2018-12-18T08:12:42.072Z,18.23
2018-12-18T08:15:10.477Z,18.77
2018-12-18T08:17:38.881Z,19.70
2018-12-18T08:20:07.657Z,18.10
2018-12-18T08:22:36.022Z,18.03
2018-12-18T08:25:05.417Z,18.73
2018-12-18T08:27:33.809Z,17.25
2018-12-18T08:30:02.200Z,18.00
2018-12-18T08:32:30.549Z,16.17
2018-12-18T08:34:58.947Z,18.70
2018-12-18T08:37:27.316Z,17.23
2018-12-18T08:39:56.447Z,16.73
2018-12-18T08:42:24.832Z,16.50
2018-12-18T08:44:53.282Z,17.60
2018-12-18T08:47:21.660Z,16.77
2018-12-18T08:49:50.308Z,17.60
2018-12-18T08:52:18.749Z,16.47
2018-12-18T08:54:47.247Z,17.65
2018-12-18T08:57:15.637Z,16.70
2018-12-18T08:59:44.044Z,15.67
2018-12-18T09:02:12.415Z,17.70
2018-12-18T09:04:40.808Z,16.33
2018-12-18T09:07:09.351Z,18.57
2018-12-18T09:09:37.919Z,17.00
2018-12-18T09:12:08.435Z,18.50
2018-12-18T09:14:38.803Z,17.32
2018-12-18T09:17:08.148Z,15.85
2018-12-18T09:19:36.875Z,15.75
2018-12-18T09:22:05.357Z,16.23
2018-12-18T09:24:33.945Z,14.57
2018-12-18T09:27:02.364Z,15.10
2018-12-18T09:29:31.891Z,15.13
2018-12-18T09:32:00.266Z,15.27
2018-12-18T09:34:28.653Z,14.97
2018-12-18T09:36:57.156Z,14.73
2018-12-18T09:39:30.907Z,16.77
2018-12-18T09:42:04.743Z,15.20
2018-12-18T09:44:33.196Z,13.77
2018-12-18T09:47:02.294Z,13.70
2018-12-18T09:49:30.815Z,15.13
2018-12-18T09:51:59.251Z,14.27
2018-12-18T09:54:27.715Z,15.88
2018-12-18T09:56:58.271Z,13.90
2018-12-18T09:59:27.002Z,14.27
2018-12-18T10:01:55.595Z,13.43
2018-12-18T10:04:24.079Z,13.20
2018-12-18T10:06:52.451Z,13.13
2018-12-18T10:09:20.897Z,12.03
2018-12-18T10:11:49.293Z,13.17
2018-12-18T10:14:17.732Z,14.67
2018-12-18T10:16:46.154Z,13.00
2018-12-18T10:19:14.579Z,13.60
2018-12-18T10:21:43.035Z,13.57
2018-12-18T10:24:11.513Z,12.40
2018-12-18T10:26:40.045Z,12.17
2018-12-18T10:29:08.466Z,12.17
2018-12-18T10:31:37.055Z,11.77
2018-12-18T10:34:05.439Z,13.10
2018-12-18T10:36:33.857Z,12.30
2018-12-18T10:39:02.256Z,13.03
2018-12-18T10:41:30.707Z,11.90
2018-12-18T10:43:59.168Z,12.80
2018-12-18T10:46:28.598Z,11.40
2018-12-18T10:48:57.070Z,10.83
2018-12-18T10:51:25.843Z,11.97
2018-12-18T10:53:54.273Z,11.13
2018-12-18T10:56:22.910Z,12.43
2018-12-18T10:58:51.275Z,12.40
2018-12-18T11:01:52.243Z,11.90
2018-12-18T11:04:20.663Z,11.40
2018-12-18T11:06:55.539Z,11.47
2018-12-18T11:09:23.950Z,10.67
2018-12-18T11:11:52.475Z,10.77
2018-12-18T11:14:20.907Z,9.93
2018-12-18T11:16:49.270Z,10.47
2018-12-18T11:19:18.694Z,8.80
2018-12-18T11:21:47.063Z,8.83
2018-12-18T11:24:15.834Z,9.20
2018-12-18T11:26:44.323Z,7.70
2018-12-18T11:29:13.667Z,9.28
2018-12-18T11:31:42.061Z,8.90
2018-12-18T11:34:10.511Z,8.37
2018-12-18T11:36:38.994Z,8.63
2018-12-18T11:39:07.984Z,9.10
2018-12-18T11:41:36.542Z,8.30
2018-12-18T11:44:05.109Z,8.08
2018-12-18T11:46:33.605Z,7.37
2018-12-18T11:49:01.966Z,7.90
2018-12-18T11:51:30.509Z,7.10
2018-12-18T11:53:58.972Z,7.10
2018-12-18T11:56:27.394Z,7.83
2018-12-18T11:58:55.829Z,7.30
2018-12-18T12:01:24.393Z,6.80
2018-12-18T12:03:52.761Z,6.70
2018-12-18T12:06:23.166Z,6.60
2018-12-18T12:08:52.924Z,7.40
2018-12-18T12:11:22.144Z,7.77
2018-12-18T12:13:51.678Z,6.62
2018-12-18T12:16:20.107Z,6.23
2018-12-18T12:18:49.372Z,6.70
2018-12-18T12:21:18.151Z,7.30
2018-12-18T12:23:46.747Z,9.13
2018-12-18T12:26:20.578Z,6.42
2018-12-18T12:28:49.105Z,6.60
2018-12-18T12:31:17.453Z,6.77
2018-12-18T12:33:45.811Z,6.47
2018-12-18T12:36:14.188Z,7.13
2018-12-18T12:38:42.569Z,6.30
2018-12-18T12:41:10.974Z,6.60
2018-12-18T12:43:39.729Z,6.05
2018-12-18T12:46:08.135Z,6.28
2018-12-18T12:48:42.754Z,5.83
2018-12-18T12:51:11.266Z,5.90
2018-12-18T12:53:39.696Z,6.07
2018-12-18T12:56:08.170Z,6.15
2018-12-18T12:58:36.685Z,5.35
2018-12-18T13:01:05.149Z,5.30
2018-12-18T13:03:33.611Z,5.30
2018-12-18T13:06:02.110Z,4.45
2018-12-18T13:08:30.555Z,5.53
2018-12-18T13:10:58.953Z,4.70
2018-12-18T13:13:27.392Z,5.40
2018-12-18T13:15:55.829Z,5.47
2018-12-18T13:18:24.485Z,5.67
2018-12-18T13:20:52.898Z,5.08
2018-12-18T13:23:21.326Z,7.30
2018-12-18T13:25:49.752Z,5.60
2018-12-18T13:28:18.107Z,5.90
2018-12-18T13:30:49.014Z,6.10
2018-12-18T13:33:17.690Z,5.57
2018-12-18T13:35:46.660Z,5.30
2018-12-18T13:38:15.763Z,5.63
2018-12-18T13:40:44.135Z,5.53
2018-12-18T13:43:12.526Z,6.63
2018-12-18T13:45:41.364Z,5.63
2018-12-18T13:48:10.039Z,5.70
2018-12-18T13:50:38.492Z,5.77
2018-12-18T13:53:06.875Z,4.90
2018-12-18T13:55:36.719Z,4.15
2018-12-18T13:58:05.595Z,4.15
2018-12-18T14:00:34.095Z,5.30
2018-12-18T14:03:02.843Z,4.85
2018-12-18T14:05:31.270Z,4.87
2018-12-18T14:07:59.651Z,4.20
2018-12-18T14:10:28.037Z,4.23
2018-12-18T14:12:57.865Z,4.65
2018-12-18T14:15:28.236Z,4.13
2018-12-18T14:17:58.383Z,4.65
2018-12-18T14:20:28.903Z,4.20
2018-12-18T14:23:00.510Z,5.43
2018-12-18T14:25:29.943Z,4.72
2018-12-18T14:27:59.996Z,4.33
2018-12-18T14:30:29.394Z,5.10
2018-12-18T14:32:58.854Z,4.30
2018-12-18T14:35:29.252Z,4.40
2018-12-18T14:38:00.368Z,5.00
2018-12-18T14:40:31.415Z,4.63
2018-12-18T14:43:01.968Z,4.20
2018-12-18T14:45:33.642Z,4.40
2018-12-18T14:48:04.043Z,4.87
2018-12-18T14:50:33.626Z,4.03
2018-12-18T14:53:04.348Z,4.70
2018-12-18T14:55:35.211Z,5.20
2018-12-18T14:58:05.940Z,4.03
2018-12-18T15:00:36.208Z,4.75
2018-12-18T15:03:07.316Z,5.20
2018-12-18T15:05:38.088Z,4.50
2018-12-18T15:08:07.698Z,4.65
2018-12-18T15:10:38.311Z,4.87
2018-12-18T15:13:08.213Z,4.53
2018-12-18T15:15:38.450Z,5.20
2018-12-18T15:18:08.742Z,4.77
2018-12-18T15:20:37.160Z,5.83
2018-12-18T15:23:05.666Z,6.20
2018-12-18T15:25:34.077Z,5.03
2018-12-18T15:28:02.534Z,5.55
2018-12-18T15:30:31.342Z,5.03
2018-12-18T15:33:00.702Z,6.00
2018-12-18T15:35:29.622Z,6.07
2018-12-18T15:37:58.190Z,6.30
2018-12-18T15:40:26.777Z,5.70
2018-12-18T15:42:55.186Z,6.10
2018-12-18T15:45:26.642Z,6.20
2018-12-18T15:47:55.189Z,5.83
2018-12-18T15:50:23.656Z,5.73
2018-12-18T15:52:52.148Z,5.77
2018-12-18T15:55:20.653Z,6.20
2018-12-18T15:57:49.051Z,5.63
2018-12-18T16:00:17.687Z,5.97
2018-12-18T16:02:46.137Z,7.20
2018-12-18T16:05:14.549Z,5.92
2018-12-18T16:07:43.097Z,6.62
2018-12-18T16:10:11.591Z,6.60
2018-12-18T16:12:40.111Z,7.60
2018-12-18T16:15:09.184Z,5.95
2018-12-18T16:17:37.924Z,7.00
2018-12-18T16:20:07.045Z,7.37
2018-12-18T16:25:52.164Z,6.70
2018-12-18T16:28:20.746Z,7.55
2018-12-18T16:30:49.332Z,7.10
2018-12-18T16:33:17.820Z,7.50
2018-12-18T16:35:46.515Z,6.65
2018-12-18T16:38:15.117Z,6.33
2018-12-18T16:40:43.541Z,8.00
2018-12-18T16:43:11.951Z,7.50
2018-12-18T16:45:40.475Z,7.92
2018-12-18T16:48:08.981Z,9.43
2018-12-18T16:50:37.624Z,10.13
2018-12-18T16:53:06.136Z,11.80
2018-12-18T16:55:34.579Z,12.53
2018-12-18T16:58:03.211Z,15.93
2018-12-18T17:00:32.155Z,11.78
2018-12-18T17:03:00.736Z,11.90
2018-12-18T17:05:29.217Z,12.05
2018-12-18T17:07:58.182Z,19.40
2018-12-18T17:10:26.857Z,7.50
2018-12-18T17:12:55.839Z,6.90
2018-12-18T17:15:25.244Z,7.53
2018-12-18T17:17:53.739Z,6.70
2018-12-18T17:20:22.631Z,9.23
2018-12-18T17:22:51.382Z,8.20
2018-12-18T17:25:19.799Z,9.23
2018-12-18T17:27:48.295Z,6.53
2018-12-18T17:30:16.740Z,7.50
2018-12-18T17:32:45.476Z,7.70
2018-12-18T17:35:13.954Z,8.25
2018-12-18T17:37:42.346Z,7.47
2018-12-18T17:40:10.914Z,7.47
2018-12-18T17:42:39.512Z,8.07
2018-12-18T17:45:08.434Z,7.40
2018-12-18T17:47:36.978Z,7.57
2018-12-18T17:50:07.161Z,7.93
2018-12-18T17:52:35.581Z,7.30
2018-12-18T17:55:05.032Z,7.95
2018-12-18T17:57:40.407Z,8.47
2018-12-18T18:05:18.289Z,8.53
2018-12-18T18:07:46.686Z,8.85
2018-12-18T18:10:15.860Z,7.90
2018-12-18T18:12:44.312Z,8.05
2018-12-18T18:15:13.088Z,8.77
2018-12-18T18:17:41.539Z,8.20
2018-12-18T18:20:10.163Z,7.73
2018-12-18T18:22:38.771Z,8.57
2018-12-18T18:25:08.473Z,8.43
2018-12-18T18:27:37.006Z,8.17
2018-12-18T18:30:06.202Z,7.83
2018-12-18T18:32:34.866Z,7.50
2018-12-18T18:35:03.638Z,7.45
2018-12-18T18:37:32.108Z,8.13
2018-12-18T18:40:00.863Z,6.90
2018-12-18T18:42:29.536Z,10.80
2018-12-18T18:44:58.295Z,28.17
2018-12-18T18:47:26.770Z,24.77
2018-12-18T18:50:02.810Z,21.77
2018-12-18T18:52:31.963Z,32.10
2018-12-18T18:55:00.927Z,16.23
2018-12-18T18:57:29.487Z,10.70
2018-12-18T18:59:58.313Z,9.90
2018-12-18T19:02:27.050Z,10.43
2018-12-18T19:04:55.822Z,9.40
2018-12-18T19:07:24.295Z,8.83
2018-12-18T19:09:55.263Z,9.20
2018-12-18T19:12:27.142Z,8.97
2018-12-18T19:15:44.210Z,8.53
2018-12-18T19:18:12.631Z,10.10
2018-12-18T19:20:41.038Z,9.50
2018-12-18T19:23:10.195Z,8.55
2018-12-18T19:25:38.952Z,9.53
2018-12-18T19:29:02.964Z,8.67
2018-12-18T19:31:31.663Z,8.93
2018-12-18T19:34:00.228Z,9.10
2018-12-18T19:36:28.787Z,9.07
2018-12-18T19:38:57.232Z,8.73
2018-12-18T19:41:25.792Z,9.27
2018-12-18T19:43:54.170Z,10.30
2018-12-18T19:46:22.565Z,9.58
2018-12-18T19:52:18.471Z,9.17
2018-12-18T19:54:47.622Z,8.90
2018-12-18T19:57:17.709Z,9.68
2018-12-18T19:59:50.609Z,8.60
2018-12-18T20:02:19.137Z,8.93
2018-12-18T20:04:47.635Z,8.93
2018-12-18T20:07:16.204Z,8.68
2018-12-18T20:09:44.755Z,8.98
2018-12-18T20:12:13.814Z,8.83
2018-12-18T20:14:50.697Z,9.67
2018-12-18T20:17:19.449Z,9.58
2018-12-18T20:19:48.420Z,9.70
2018-12-18T20:22:16.988Z,8.33
2018-12-18T20:24:46.007Z,9.28
2018-12-18T20:27:14.523Z,9.37
2018-12-18T20:29:48.996Z,9.37
2018-12-18T20:32:30.327Z,8.73
2018-12-18T20:34:59.813Z,8.17
2018-12-18T20:37:37.120Z,8.07
2018-12-18T20:40:07.776Z,8.33
2018-12-18T20:42:37.025Z,9.40
2018-12-18T20:45:07.554Z,10.00
2018-12-18T20:47:42.855Z,10.08
2018-12-18T20:50:11.313Z,9.73
2018-12-18T20:52:40.406Z,10.23
2018-12-18T20:55:08.854Z,9.50
2018-12-18T20:57:37.667Z,15.50
2018-12-18T21:00:08.886Z,13.83
2018-12-18T21:02:37.732Z,12.03
2018-12-18T21:05:10.444Z,10.20
2018-12-18T21:07:38.967Z,11.00
2018-12-18T21:10:09.390Z,11.87
2018-12-18T21:12:38.660Z,11.10
2018-12-18T21:15:07.702Z,12.47
2018-12-18T21:20:34.383Z,13.60
2018-12-18T21:23:04.976Z,13.27
2018-12-18T21:25:33.421Z,13.97
2018-12-18T21:28:01.880Z,12.85
2018-12-18T21:30:30.633Z,12.50
2018-12-18T21:32:59.330Z,12.50
2018-12-18T21:35:31.133Z,14.53
2018-12-18T21:38:00.384Z,13.62
2018-12-18T21:40:29.058Z,14.17
2018-12-18T21:43:03.165Z,15.75
2018-12-18T21:45:33.184Z,15.88
2018-12-18T21:48:02.064Z,15.60
2018-12-18T21:50:31.114Z,14.95
2018-12-18T21:53:01.344Z,16.00
2018-12-18T21:55:31.690Z,15.13
2018-12-18T21:58:00.147Z,14.40
2018-12-18T22:03:20.871Z,15.83
2018-12-18T22:05:50.798Z,18.47
2018-12-18T22:08:23.473Z,17.10
2018-12-18T22:10:52.538Z,17.33
2018-12-18T22:13:21.069Z,17.13
2018-12-18T22:15:49.750Z,17.62
2018-12-18T22:18:20.608Z,16.77
2018-12-18T22:20:49.127Z,16.30
2018-12-18T22:23:18.132Z,16.27
2018-12-18T22:25:46.571Z,15.83
2018-12-18T22:28:15.402Z,16.70
2018-12-18T22:30:44.332Z,17.40
2018-12-18T22:33:14.471Z,17.13
2018-12-18T22:35:43.605Z,16.77
2018-12-18T22:38:15.252Z,16.73
2018-12-18T22:40:43.752Z,17.05
2018-12-18T22:43:12.752Z,17.10
2018-12-18T22:45:42.656Z,18.10
2018-12-18T22:48:11.246Z,17.62
2018-12-18T22:50:39.896Z,19.30
2018-12-18T22:53:08.392Z,17.63
2018-12-18T22:55:36.883Z,17.50
2018-12-18T22:58:05.701Z,19.27
2018-12-18T23:00:40.735Z,21.70
2018-12-18T23:03:09.918Z,20.20
2018-12-18T23:05:39.517Z,18.67
2018-12-18T23:08:10.420Z,17.47
2018-12-18T23:10:39.906Z,20.73
2018-12-18T23:13:08.504Z,18.93
2018-12-18T23:15:39.721Z,18.40
2018-12-18T23:18:10.874Z,17.37
2018-12-18T23:20:41.495Z,18.50
2018-12-18T23:23:12.200Z,17.83
2018-12-18T23:25:41.024Z,17.23
2018-12-18T23:28:10.324Z,18.20
2018-12-18T23:30:39.014Z,17.37
2018-12-18T23:33:15.980Z,20.00
2018-12-18T23:35:46.717Z,18.80
2018-12-18T23:38:15.247Z,16.50
2018-12-18T23:40:43.757Z,19.70
2018-12-18T23:43:12.936Z,19.10
2018-12-18T23:45:42.565Z,18.50
2018-12-18T23:48:11.202Z,19.77
2018-12-18T23:50:42.586Z,20.00
2018-12-18T23:53:12.503Z,18.95
2018-12-18T23:55:42.892Z,19.52
2018-12-18T23:58:13.111Z,17.90
